createdAt,value
2018-06-29T00:02:17.335Z,17.70
2018-06-29T00:04:45.884Z,18.03
2018-06-29T00:07:14.427Z,39.17
2018-06-29T00:09:42.861Z,16.93
2018-06-29T00:12:11.353Z,15.73
2018-06-29T00:14:39.768Z,17.47
2018-06-29T00:17:08.404Z,18.00
2018-06-29T00:19:36.845Z,16.63
2018-06-29T00:22:05.331Z,16.93
2018-06-29T00:24:33.814Z,16.73
2018-06-29T00:27:02.252Z,19.20
2018-06-29T00:29:30.659Z,24.63
2018-06-29T00:31:59.097Z,19.03
2018-06-29T00:34:27.553Z,20.43
2018-06-29T00:36:55.968Z,22.57
2018-06-29T00:39:24.445Z,25.23
2018-06-29T00:41:52.891Z,21.33
2018-06-29T00:44:21.418Z,21.40
2018-06-29T00:46:49.865Z,24.53
2018-06-29T00:49:18.306Z,24.70
2018-06-29T00:51:46.806Z,20.87
2018-06-29T00:54:15.288Z,20.40
2018-06-29T00:56:43.809Z,19.40
2018-06-29T00:59:12.264Z,20.67
2018-06-29T01:01:40.670Z,20.80
2018-06-29T01:04:09.180Z,20.73
2018-06-29T01:06:37.609Z,23.20
2018-06-29T01:09:07.087Z,21.83
2018-06-29T01:11:39.154Z,19.80
2018-06-29T01:14:11.383Z,22.07
2018-06-29T01:16:43.672Z,23.13
2018-06-29T01:19:15.602Z,23.60
2018-06-29T01:21:47.863Z,21.63
2018-06-29T01:24:19.760Z,22.30
2018-06-29T01:26:51.660Z,22.90
2018-06-29T01:29:24.938Z,23.87
2018-06-29T01:31:57.834Z,20.67
2018-06-29T01:34:30.090Z,19.27
2018-06-29T01:37:01.611Z,24.30
2018-06-29T01:39:33.833Z,28.90
2018-06-29T01:42:05.131Z,23.27
2018-06-29T01:44:36.418Z,21.63
2018-06-29T01:47:09.355Z,27.30
2018-06-29T01:49:41.520Z,18.83
2018-06-29T01:52:13.226Z,18.97
2018-06-29T01:54:45.948Z,18.00
2018-06-29T01:57:20.069Z,18.17
2018-06-29T01:59:52.161Z,20.10
2018-06-29T02:02:26.633Z,25.60
2018-06-29T02:04:58.168Z,18.80
2018-06-29T02:07:29.493Z,19.90
2018-06-29T02:10:00.990Z,17.77
2018-06-29T02:12:32.984Z,19.60
2018-06-29T02:15:04.534Z,20.30
2018-06-29T02:17:35.862Z,25.30
2018-06-29T02:20:05.693Z,26.60
2018-06-29T02:22:38.676Z,22.50
2018-06-29T02:25:10.265Z,21.63
2018-06-29T02:27:42.056Z,22.83
2018-06-29T02:30:13.718Z,16.47
2018-06-29T02:32:45.484Z,18.43
2018-06-29T02:35:16.331Z,19.93
2018-06-29T02:37:47.418Z,50.53
2018-06-29T02:40:18.660Z,20.23
2018-06-29T02:42:49.974Z,19.63
2018-06-29T02:45:21.329Z,24.87
2018-06-29T02:47:53.069Z,21.17
2018-06-29T02:50:25.142Z,19.33
2018-06-29T02:52:56.791Z,19.20
2018-06-29T02:55:29.555Z,20.97
2018-06-29T02:58:01.223Z,25.90
2018-06-29T03:00:34.739Z,25.13
2018-06-29T03:03:07.776Z,26.40
2018-06-29T03:05:39.730Z,21.50
2018-06-29T03:08:11.663Z,19.63
2018-06-29T03:10:43.464Z,23.67
2018-06-29T03:13:16.413Z,22.73
2018-06-29T03:15:49.276Z,24.77
2018-06-29T03:18:23.461Z,21.23
2018-06-29T03:21:03.671Z,28.37
2018-06-29T03:23:35.465Z,20.97
2018-06-29T03:26:12.655Z,20.17
2018-06-29T03:28:44.420Z,19.50
2018-06-29T03:31:17.940Z,18.60
2018-06-29T03:33:50.000Z,18.83
2018-06-29T03:36:21.823Z,21.30
2018-06-29T03:38:54.043Z,20.10
2018-06-29T03:41:25.822Z,16.17
2018-06-29T03:43:57.857Z,16.83
2018-06-29T03:46:30.540Z,20.00
2018-06-29T03:49:02.007Z,15.87
2018-06-29T03:51:34.126Z,17.17
2018-06-29T03:54:10.755Z,19.83
2018-06-29T03:56:42.414Z,26.50
2018-06-29T03:59:15.106Z,23.27
2018-06-29T04:01:46.799Z,21.50
2018-06-29T04:04:18.460Z,17.63
2018-06-29T04:06:50.093Z,20.53
2018-06-29T04:09:21.021Z,22.27
2018-06-29T04:11:53.663Z,16.83
2018-06-29T04:14:26.247Z,21.83
2018-06-29T04:16:58.522Z,19.37
2018-06-29T04:19:30.360Z,22.70
2018-06-29T04:22:01.629Z,20.27
2018-06-29T04:24:33.636Z,18.90
2018-06-29T04:27:05.822Z,20.07
2018-06-29T04:29:38.153Z,16.53
2018-06-29T04:32:10.009Z,16.07
2018-06-29T04:34:41.236Z,21.93
2018-06-29T04:37:12.582Z,19.27
2018-06-29T04:39:42.756Z,21.10
2018-06-29T04:42:13.058Z,20.90
2018-06-29T04:44:45.482Z,20.40
2018-06-29T04:47:16.988Z,19.20
2018-06-29T04:49:49.472Z,21.83
2018-06-29T04:52:21.135Z,18.27
2018-06-29T04:54:52.703Z,22.33
2018-06-29T04:57:25.209Z,23.03
2018-06-29T04:59:56.582Z,27.23
2018-06-29T05:02:28.398Z,28.53
2018-06-29T05:04:59.870Z,28.33
2018-06-29T05:07:32.114Z,34.03
2018-06-29T05:10:04.039Z,29.43
2018-06-29T05:12:35.792Z,25.77
2018-06-29T05:15:07.357Z,32.73
2018-06-29T05:17:38.777Z,31.37
2018-06-29T05:20:10.534Z,24.07
2018-06-29T05:22:43.031Z,27.40
2018-06-29T05:25:14.486Z,28.67
2018-06-29T05:27:45.963Z,28.83
2018-06-29T05:30:17.668Z,29.43
2018-06-29T05:32:50.494Z,26.40
2018-06-29T05:35:20.848Z,29.33
2018-06-29T05:37:51.056Z,27.13
2018-06-29T05:40:20.564Z,28.80
2018-06-29T05:42:50.976Z,30.90
2018-06-29T05:45:21.606Z,32.83
2018-06-29T05:47:52.829Z,31.43
2018-06-29T05:50:26.597Z,33.63
2018-06-29T05:52:57.755Z,34.13
2018-06-29T05:55:29.828Z,32.80
2018-06-29T05:58:01.038Z,35.13
2018-06-29T06:00:32.393Z,32.70
2018-06-29T06:03:03.211Z,28.07
2018-06-29T06:05:34.371Z,31.73
2018-06-29T06:08:06.304Z,29.47
2018-06-29T06:10:40.948Z,33.97
2018-06-29T06:13:12.870Z,27.20
2018-06-29T06:15:44.164Z,30.67
2018-06-29T06:18:14.272Z,27.27
2018-06-29T06:20:45.445Z,26.23
2018-06-29T06:23:18.938Z,38.53
2018-06-29T06:25:48.694Z,26.03
2018-06-29T06:28:20.160Z,31.73
2018-06-29T06:30:50.711Z,26.37
2018-06-29T06:33:20.721Z,33.13
2018-06-29T06:35:51.078Z,22.63
2018-06-29T06:38:20.553Z,25.83
2018-06-29T06:41:06.379Z,36.00
2018-06-29T06:43:37.116Z,34.50
2018-06-29T06:46:08.234Z,27.47
2018-06-29T06:48:38.821Z,28.83
2018-06-29T06:51:08.231Z,31.53
2018-06-29T06:53:39.227Z,28.93
2018-06-29T06:56:09.759Z,32.30
2018-06-29T06:58:39.246Z,39.07
2018-06-29T07:01:09.267Z,19.13
2018-06-29T07:03:40.935Z,32.80
2018-06-29T07:06:11.376Z,21.87
2018-06-29T07:08:41.030Z,25.33
2018-06-29T07:11:09.895Z,16.00
2018-06-29T07:13:39.420Z,17.00
2018-06-29T07:16:10.329Z,19.23
2018-06-29T07:18:40.140Z,26.50
2018-06-29T07:21:09.827Z,16.17
2018-06-29T07:23:39.351Z,19.60
2018-06-29T07:26:09.485Z,22.20
2018-06-29T07:28:41.678Z,12.77
2018-06-29T07:31:12.334Z,16.10
2018-06-29T07:33:42.251Z,16.73
2018-06-29T07:36:12.591Z,19.90
2018-06-29T07:38:42.513Z,11.77
2018-06-29T07:41:13.502Z,12.47
2018-06-29T07:43:42.904Z,10.50
2018-06-29T07:46:12.706Z,21.70
2018-06-29T07:48:42.867Z,15.77
2018-06-29T07:51:12.417Z,14.80
2018-06-29T07:53:42.842Z,16.03
2018-06-29T07:56:12.686Z,11.73
2018-06-29T07:58:44.300Z,9.97
2018-06-29T08:01:15.276Z,11.90
2018-06-29T08:03:46.068Z,28.73
2018-06-29T08:06:16.417Z,22.23
2018-06-29T08:08:46.990Z,13.17
2018-06-29T08:11:17.243Z,8.17
2018-06-29T08:13:46.580Z,13.23
2018-06-29T08:16:18.207Z,9.43
2018-06-29T08:18:48.927Z,9.20
2018-06-29T08:21:18.570Z,12.70
2018-06-29T08:23:47.701Z,9.57
2018-06-29T08:26:24.528Z,6.40
2018-06-29T08:28:55.257Z,14.57
2018-06-29T08:31:24.195Z,7.73
2018-06-29T08:33:53.817Z,9.47
2018-06-29T08:36:23.130Z,9.13
2018-06-29T08:38:54.134Z,5.13
2018-06-29T08:41:24.883Z,6.80
2018-06-29T08:43:56.144Z,19.70
2018-06-29T08:46:25.604Z,5.67
2018-06-29T08:48:55.927Z,10.40
2018-06-29T08:51:24.341Z,6.57
2018-06-29T08:53:52.740Z,6.83
2018-06-29T08:56:21.484Z,5.27
2018-06-29T08:58:50.736Z,7.00
2018-06-29T09:01:19.468Z,5.63
2018-06-29T09:03:47.952Z,4.70
2018-06-29T09:06:16.349Z,10.63
2018-06-29T09:08:45.157Z,11.13
2018-06-29T09:11:13.602Z,17.90
2018-06-29T09:13:42.019Z,24.07
2018-06-29T09:16:10.416Z,8.67
2018-06-29T09:18:38.983Z,5.67
2018-06-29T09:21:07.477Z,6.57
2018-06-29T09:23:38.529Z,7.00
2018-06-29T09:26:07.160Z,5.97
2018-06-29T09:28:35.602Z,6.10
2018-06-29T09:31:05.001Z,5.87
2018-06-29T09:33:33.560Z,6.17
2018-06-29T09:36:02.058Z,6.40
2018-06-29T09:38:30.537Z,13.50
2018-06-29T09:40:59.698Z,6.43
2018-06-29T09:43:28.176Z,6.90
2018-06-29T09:45:56.590Z,6.90
2018-06-29T09:48:25.855Z,6.33
2018-06-29T09:50:54.248Z,11.20
2018-06-29T09:53:22.925Z,12.03
2018-06-29T09:55:52.036Z,13.10
2018-06-29T09:58:20.464Z,10.17
2018-06-29T10:00:55.409Z,5.20
2018-06-29T10:03:17.313Z,5.77
2018-06-29T10:05:45.828Z,10.67
2018-06-29T10:08:14.264Z,7.20
2018-06-29T10:10:42.718Z,10.37
2018-06-29T10:13:11.126Z,8.03
2018-06-29T10:15:39.538Z,9.80
2018-06-29T10:18:08.028Z,4.83
2018-06-29T10:20:36.506Z,8.17
2018-06-29T10:23:05.086Z,7.47
2018-06-29T10:25:34.127Z,6.40
2018-06-29T10:28:04.125Z,5.40
2018-06-29T10:30:34.266Z,5.97
2018-06-29T10:33:02.896Z,9.70
2018-06-29T10:35:44.920Z,5.23
2018-06-29T10:38:13.572Z,12.60
2018-06-29T10:40:42.213Z,6.20
2018-06-29T10:43:10.882Z,5.37
2018-06-29T10:45:39.463Z,5.80
2018-06-29T10:48:07.824Z,5.90
2018-06-29T10:50:42.127Z,7.77
2018-06-29T10:53:10.749Z,7.03
2018-06-29T10:55:39.174Z,5.30
2018-06-29T10:58:08.456Z,5.27
2018-06-29T11:00:36.841Z,6.80
2018-06-29T11:03:05.252Z,7.47
2018-06-29T11:05:33.817Z,8.13
2018-06-29T11:08:02.326Z,8.20
2018-06-29T11:10:30.748Z,6.43
2018-06-29T11:12:59.112Z,7.23
2018-06-29T11:15:27.609Z,5.77
2018-06-29T11:17:55.949Z,5.40
2018-06-29T11:20:24.430Z,14.93
2018-06-29T11:22:53.063Z,5.83
2018-06-29T11:25:21.738Z,15.27
2018-06-29T11:27:50.593Z,5.20
2018-06-29T11:30:19.048Z,13.20
2018-06-29T11:32:47.483Z,4.93
2018-06-29T11:35:17.536Z,5.60
2018-06-29T11:37:46.105Z,5.60
2018-06-29T11:40:14.529Z,5.20
2018-06-29T11:42:43.074Z,8.03
2018-06-29T11:45:11.664Z,7.70
2018-06-29T11:47:40.344Z,7.43
2018-06-29T11:50:08.770Z,5.47
2018-06-29T11:52:37.252Z,8.60
2018-06-29T11:55:07.045Z,13.73
2018-06-29T11:57:35.549Z,8.80
2018-06-29T12:00:05.047Z,6.97
2018-06-29T12:02:33.437Z,6.03
2018-06-29T12:05:02.048Z,5.70
2018-06-29T12:07:30.408Z,8.43
2018-06-29T12:09:58.805Z,9.27
2018-06-29T12:12:27.148Z,7.70
2018-06-29T12:14:57.079Z,5.57
2018-06-29T12:17:25.537Z,6.13
2018-06-29T12:19:53.907Z,5.67
2018-06-29T12:22:22.398Z,8.53
2018-06-29T12:24:51.959Z,5.30
2018-06-29T12:27:21.172Z,5.57
2018-06-29T12:29:49.552Z,5.80
2018-06-29T12:32:17.908Z,5.13
2018-06-29T12:34:48.054Z,6.50
2018-06-29T12:37:16.592Z,5.57
2018-06-29T12:39:45.036Z,6.50
2018-06-29T12:42:14.214Z,5.50
2018-06-29T12:44:42.685Z,4.97
2018-06-29T12:47:11.216Z,6.63
2018-06-29T12:49:40.063Z,5.70
2018-06-29T12:52:08.674Z,5.77
2018-06-29T12:54:37.314Z,5.17
2018-06-29T12:57:05.639Z,5.77
2018-06-29T12:59:34.064Z,7.03
2018-06-29T13:02:02.457Z,9.00
2018-06-29T13:04:30.895Z,7.43
2018-06-29T13:06:59.542Z,5.83
2018-06-29T13:09:27.925Z,5.50
2018-06-29T13:11:56.285Z,9.00
2018-06-29T13:14:24.796Z,5.80
2018-06-29T13:16:53.305Z,4.27
2018-06-29T13:19:21.609Z,8.70
2018-06-29T13:21:50.110Z,13.80
2018-06-29T13:24:19.070Z,11.17
2018-06-29T13:26:47.524Z,8.40
2018-06-29T13:29:15.887Z,7.83
2018-06-29T13:31:44.490Z,5.13
2018-06-29T13:34:12.847Z,8.30
2018-06-29T13:36:41.298Z,5.93
2018-06-29T13:39:10.821Z,7.37
2018-06-29T13:41:39.478Z,5.07
2018-06-29T13:44:07.999Z,5.80
2018-06-29T13:46:36.509Z,12.57
2018-06-29T13:49:05.155Z,5.50
2018-06-29T13:51:33.650Z,6.10
2018-06-29T13:54:02.050Z,16.53
2018-06-29T13:56:30.432Z,20.20
2018-06-29T13:58:58.984Z,4.57
2018-06-29T14:01:27.406Z,4.83
2018-06-29T14:03:56.124Z,5.27
2018-06-29T14:06:24.569Z,7.70
2018-06-29T14:08:53.365Z,7.90
2018-06-29T14:11:21.930Z,5.73
2018-06-29T14:13:50.569Z,4.17
2018-06-29T14:16:19.123Z,4.50
2018-06-29T14:18:47.579Z,5.57
2018-06-29T14:21:16.137Z,5.10
2018-06-29T14:23:44.556Z,4.40
2018-06-29T14:26:13.446Z,5.47
2018-06-29T14:28:41.967Z,14.00
2018-06-29T14:31:11.179Z,6.10
2018-06-29T14:33:39.691Z,5.20
2018-06-29T14:36:08.660Z,8.90
2018-06-29T14:38:37.064Z,15.70
2018-06-29T14:41:05.565Z,9.27
2018-06-29T14:43:33.954Z,4.17
2018-06-29T14:46:02.397Z,5.10
2018-06-29T14:48:30.758Z,7.63
2018-06-29T14:50:59.112Z,4.90
2018-06-29T14:53:27.596Z,11.60
2018-06-29T14:55:56.052Z,8.43
2018-06-29T14:58:24.422Z,6.37
2018-06-29T15:00:52.874Z,4.00
2018-06-29T15:03:21.408Z,12.00
2018-06-29T15:05:49.786Z,6.23
2018-06-29T15:08:18.195Z,4.87
2018-06-29T15:10:47.194Z,8.03
2018-06-29T15:13:16.245Z,6.00
2018-06-29T15:15:45.329Z,4.70
2018-06-29T15:18:14.312Z,4.83
2018-06-29T15:20:46.806Z,13.03
2018-06-29T15:23:15.622Z,6.63
2018-06-29T15:25:44.025Z,6.60
2018-06-29T15:28:12.333Z,5.43
2018-06-29T15:30:41.592Z,7.30
2018-06-29T15:33:09.924Z,7.77
2018-06-29T15:35:38.276Z,5.90
2018-06-29T15:38:06.711Z,9.63
2018-06-29T15:40:35.039Z,5.40
2018-06-29T15:43:03.394Z,7.30
2018-06-29T15:45:31.740Z,6.87
2018-06-29T15:48:00.152Z,5.60
2018-06-29T15:50:28.558Z,4.90
2018-06-29T15:52:56.891Z,5.90
2018-06-29T15:55:25.214Z,10.13
2018-06-29T15:57:53.585Z,5.30
2018-06-29T16:00:21.969Z,4.77
2018-06-29T16:02:50.311Z,8.73
2018-06-29T16:05:18.690Z,6.17
2018-06-29T16:07:47.139Z,4.30
2018-06-29T16:10:15.553Z,4.67
2018-06-29T16:12:43.988Z,5.40
2018-06-29T16:15:12.336Z,4.10
2018-06-29T16:17:40.772Z,7.53
2018-06-29T16:20:09.177Z,30.53
2018-06-29T16:22:37.670Z,4.67
2018-06-29T16:25:06.034Z,6.37
2018-06-29T16:27:34.477Z,4.50
2018-06-29T16:30:02.849Z,6.53
2018-06-29T16:32:31.220Z,11.33
2018-06-29T16:34:59.598Z,4.33
2018-06-29T16:37:27.950Z,7.20
2018-06-29T16:39:56.348Z,4.97
2018-06-29T16:42:24.760Z,6.53
2018-06-29T16:44:53.156Z,4.53
2018-06-29T16:47:21.499Z,4.70
2018-06-29T16:49:49.848Z,6.43
2018-06-29T16:52:18.180Z,6.77
2018-06-29T16:54:46.585Z,6.20
2018-06-29T16:57:15.140Z,6.27
2018-06-29T16:59:43.609Z,5.30
2018-06-29T17:02:12.009Z,5.23
2018-06-29T17:04:40.407Z,5.17
2018-06-29T17:07:08.800Z,4.87
2018-06-29T17:09:37.208Z,10.20
2018-06-29T17:12:05.766Z,5.53
2018-06-29T17:14:34.097Z,4.60
2018-06-29T17:17:02.433Z,6.63
2018-06-29T17:19:30.841Z,4.57
2018-06-29T17:21:59.229Z,13.33
2018-06-29T17:24:28.776Z,9.40
2018-06-29T17:26:57.211Z,3.97
2018-06-29T17:29:25.527Z,4.40
2018-06-29T17:31:53.912Z,4.63
2018-06-29T17:34:22.472Z,6.50
2018-06-29T17:36:50.836Z,5.53
2018-06-29T17:39:19.249Z,6.53
2018-06-29T17:41:47.612Z,4.47
2018-06-29T17:44:16.061Z,8.07
2018-06-29T17:46:44.498Z,5.60
2018-06-29T17:49:12.936Z,5.03
2018-06-29T17:51:41.432Z,4.40
2018-06-29T17:54:09.793Z,11.60
2018-06-29T17:56:38.141Z,4.53
2018-06-29T17:59:06.521Z,8.50
2018-06-29T18:01:38.134Z,4.63
2018-06-29T18:04:06.579Z,7.50
2018-06-29T18:06:34.940Z,5.73
2018-06-29T18:09:03.596Z,4.23
2018-06-29T18:11:31.937Z,5.30
2018-06-29T18:14:00.253Z,5.07
2018-06-29T18:16:28.697Z,4.37
2018-06-29T18:18:57.237Z,4.40
2018-06-29T18:21:25.561Z,5.73
2018-06-29T18:23:53.964Z,5.80
2018-06-29T18:26:22.372Z,4.77
2018-06-29T18:28:50.827Z,4.33
2018-06-29T18:31:19.576Z,4.17
2018-06-29T18:33:47.959Z,5.63
2018-06-29T18:36:16.335Z,4.13
2018-06-29T18:38:44.760Z,3.90
2018-06-29T18:41:13.406Z,4.93
2018-06-29T18:43:41.765Z,5.63
2018-06-29T18:46:10.210Z,9.53
2018-06-29T18:48:38.663Z,6.20
2018-06-29T18:51:06.981Z,4.83
2018-06-29T18:53:35.353Z,4.60
2018-06-29T18:56:03.740Z,7.37
2018-06-29T18:58:32.151Z,4.90
2018-06-29T19:01:03.107Z,3.93
2018-06-29T19:03:31.546Z,7.53
2018-06-29T19:05:59.953Z,4.30
2018-06-29T19:08:28.328Z,4.70
2018-06-29T19:10:56.737Z,4.73
2018-06-29T19:13:25.242Z,9.47
2018-06-29T19:15:53.645Z,6.30
2018-06-29T19:18:22.066Z,6.20
2018-06-29T19:20:50.445Z,8.63
2018-06-29T19:23:18.873Z,5.40
2018-06-29T19:25:47.396Z,8.50
2018-06-29T19:28:15.764Z,6.27
2018-06-29T19:30:44.203Z,8.17
2018-06-29T19:33:12.586Z,9.10
2018-06-29T19:35:40.939Z,8.53
2018-06-29T19:38:09.369Z,8.77
2018-06-29T19:40:37.752Z,8.53
2018-06-29T19:43:06.144Z,6.33
2018-06-29T19:45:34.954Z,8.10
2018-06-29T19:48:03.420Z,7.40
2018-06-29T19:50:31.849Z,9.67
2018-06-29T19:53:00.257Z,5.87
2018-06-29T19:55:28.747Z,12.80
2018-06-29T19:57:57.199Z,6.70
2018-06-29T20:00:25.581Z,9.83
2018-06-29T20:02:57.193Z,6.30
2018-06-29T20:05:25.621Z,6.17
2018-06-29T20:07:54.013Z,7.47
2018-06-29T20:10:22.397Z,7.10
2018-06-29T20:12:50.847Z,7.00
2018-06-29T20:15:19.256Z,6.57
2018-06-29T20:17:47.663Z,10.50
2018-06-29T20:20:16.115Z,6.20
2018-06-29T20:22:44.524Z,12.40
2018-06-29T20:25:12.958Z,8.43
2018-06-29T20:27:41.363Z,7.23
2018-06-29T20:30:10.053Z,6.93
2018-06-29T20:32:38.526Z,18.00
2018-06-29T20:35:06.903Z,6.63
2018-06-29T20:37:35.307Z,6.30
2018-06-29T20:40:04.075Z,13.90
2018-06-29T20:42:32.492Z,5.30
2018-06-29T20:45:01.013Z,6.30
2018-06-29T20:47:29.449Z,7.43
2018-06-29T20:49:57.889Z,6.30
2018-06-29T20:52:26.337Z,12.37
2018-06-29T20:54:54.709Z,15.33
2018-06-29T20:57:23.104Z,10.40
2018-06-29T20:59:51.487Z,8.40
2018-06-29T21:02:19.862Z,13.27
2018-06-29T21:04:48.372Z,10.23
2018-06-29T21:07:16.814Z,7.70
2018-06-29T21:09:45.266Z,9.70
2018-06-29T21:12:13.712Z,8.63
2018-06-29T21:14:42.850Z,10.93
2018-06-29T21:17:11.353Z,16.60
2018-06-29T21:19:39.740Z,6.70
2018-06-29T21:22:08.181Z,6.93
2018-06-29T21:24:36.682Z,8.83
2018-06-29T21:27:05.062Z,6.93
2018-06-29T21:29:33.490Z,7.30
2018-06-29T21:32:01.905Z,6.70
2018-06-29T21:34:30.296Z,6.50
2018-06-29T21:36:58.748Z,6.67
2018-06-29T21:39:27.146Z,6.23
2018-06-29T21:41:55.609Z,7.00
2018-06-29T21:44:23.999Z,13.70
2018-06-29T21:46:52.719Z,11.50
2018-06-29T21:49:21.174Z,6.90
2018-06-29T21:51:49.745Z,6.77
2018-06-29T21:54:18.215Z,6.20
2018-06-29T21:56:46.637Z,10.50
2018-06-29T21:59:15.080Z,5.93
2018-06-29T22:01:43.563Z,9.60
2018-06-29T22:04:12.074Z,10.83
2018-06-29T22:06:40.511Z,9.73
2018-06-29T22:09:09.652Z,7.70
2018-06-29T22:11:38.237Z,12.70
2018-06-29T22:14:07.036Z,10.40
2018-06-29T22:16:35.486Z,7.00
2018-06-29T22:19:03.894Z,8.90
2018-06-29T22:21:32.329Z,13.13
2018-06-29T22:24:00.770Z,9.13
2018-06-29T22:26:29.264Z,7.77
2018-06-29T22:28:57.636Z,7.00
2018-06-29T22:31:26.093Z,12.20
2018-06-29T22:33:54.443Z,6.97
2018-06-29T22:36:22.919Z,7.20
2018-06-29T22:38:51.311Z,8.50
2018-06-29T22:41:19.738Z,7.03
2018-06-29T22:43:48.143Z,7.33
2018-06-29T22:46:16.621Z,7.80
2018-06-29T22:48:45.077Z,11.03
2018-06-29T22:51:13.534Z,7.13
2018-06-29T22:53:41.975Z,8.10
2018-06-29T22:56:11.494Z,15.73
2018-06-29T22:58:40.006Z,7.23
2018-06-29T23:01:08.372Z,6.43
2018-06-29T23:03:42.236Z,6.47
2018-06-29T23:06:10.640Z,8.27
2018-06-29T23:08:39.053Z,13.33
2018-06-29T23:11:07.469Z,7.60
2018-06-29T23:13:35.822Z,7.10
2018-06-29T23:16:04.230Z,7.73
2018-06-29T23:18:32.633Z,10.30
2018-06-29T23:21:01.062Z,7.00
2018-06-29T23:23:29.473Z,10.50
2018-06-29T23:25:57.864Z,9.27
2018-06-29T23:28:26.233Z,10.93
2018-06-29T23:30:54.696Z,8.03
2018-06-29T23:33:23.089Z,8.07
2018-06-29T23:35:51.558Z,9.60
2018-06-29T23:38:20.029Z,7.43
2018-06-29T23:40:48.493Z,8.60
2018-06-29T23:43:16.884Z,8.30
2018-06-29T23:45:45.377Z,17.73
2018-06-29T23:48:13.772Z,7.77
2018-06-29T23:50:42.202Z,7.43
2018-06-29T23:53:10.552Z,8.30
2018-06-29T23:55:39.078Z,18.30
2018-06-29T23:58:07.524Z,7.97
